KGSB

Seymour Johnson AFB Airport

Goldsboro, North Carolina, USA
METAR KGSB 141622Z AUTO 06006KT 10SM -RA SCT055 09/07 A3024 RMK AO2 RAE06RAB22 SLP244 $
Observed Flight Rules
Dec-14 @ 16:22 UTC (46 minutes ago) Visual Flight Rules
Wind Visibility Clouds Conditions
60° at 6 knots 10 miles
  • Scattered at 5,500' AGL
  • Light Rain
Temperatures Readings
Current 9°C / 48°F
Dewpoint 7°C / 45°F
Humidity 87%
Altimeter 30.24" Hg
Pressure 1024.4 hPa
Elevation 33
METAR KGSB 141622Z AUTO 06006KT 10SM -RA SCT055 09/07 A3024 RMK AO2 RAE06RAB22 SLP244 $
Observed Flight Rules
Dec-14 @ 16:22 UTC
(46 minutes ago)
VFR
Wind Visibility
60° at 6 knots 10 miles
Clouds
  • Scattered at 5,500' AGL
Conditions
  • Light Rain
Temperature Dewpoint
9°C / 48°F 7°C / 45°F
Humidity Altimeter Pressure
87% 30.24" Hg 1024.4 hPa